Time;durP1;ratioP1;P1;durP2;ratioP2;P2;SDS_P1;SDS_P2;PMS_P1;PMS_P2;Temp;Humidity;BMP_temperature;BMP_pressure;BME280_temperature;BME280_humidity;BME280_pressure;Samples;Min_cycle;Max_cycle;Signal;HPM_P1;HPM_P2
2023/04/16 00:02:26;;;;;;;1.33;1.23;;;3.60;99.90;4.50;96341.00;;;;5111175;28;20467;-68
2023/04/16 00:05:16;;;;;;;1.20;1.00;;;3.50;99.90;4.40;96340.00;;;;5109479;28;20209;-68
2023/04/16 00:08:05;;;;;;;2.70;0.80;;;3.50;99.90;4.10;96342.00;;;;5107050;28;20417;-67
2023/04/16 00:10:54;;;;;;;0.97;0.97;;;3.30;99.90;4.30;96342.00;;;;5105895;28;20476;-66
2023/04/16 00:13:43;;;;;;;1.83;1.73;;;3.40;99.90;4.60;96337.00;;;;5098222;28;20429;-66
2023/04/16 00:16:32;;;;;;;1.40;1.20;;;3.40;99.90;4.60;96349.00;;;;5114558;27;20425;-66
2023/04/16 00:19:21;;;;;;;1.60;1.50;;;3.40;99.90;4.40;96344.00;;;;5114805;27;20474;-66
2023/04/16 00:22:11;;;;;;;1.90;1.53;;;3.50;99.90;4.20;96341.00;;;;5101160;28;20472;-65
2023/04/16 00:25:00;;;;;;;2.27;1.20;;;3.30;99.90;3.80;96345.00;;;;5104611;28;20503;-68
2023/04/16 00:27:48;;;;;;;1.10;1.00;;;3.20;99.90;3.80;96343.00;;;;5111323;28;20455;-68
2023/04/16 00:30:37;;;;;;;1.73;1.40;;;3.10;99.90;3.70;96347.00;;;;5100558;28;20954;-69
2023/04/16 00:33:26;;;;;;;1.27;1.00;;;3.00;99.90;3.60;96351.00;;;;5109104;27;20912;-65
2023/04/16 00:36:14;;;;;;;1.97;1.23;;;2.90;99.90;3.90;96354.00;;;;5106391;28;20428;-65
2023/04/16 00:39:04;;;;;;;1.30;1.20;;;3.10;99.90;4.20;96355.00;;;;5105790;28;20413;-65
2023/04/16 00:41:53;;;;;;;1.17;1.17;;;3.30;99.90;4.20;96354.00;;;;5115117;27;20977;-65
2023/04/16 00:44:42;;;;;;;1.17;1.03;;;3.30;99.90;3.80;96356.00;;;;5117338;27;20524;-68
2023/04/16 00:47:31;;;;;;;4.60;1.60;;;3.10;99.90;3.80;96360.00;;;;5114632;27;20430;-67
2023/04/16 00:50:20;;;;;;;1.27;1.17;;;3.10;99.90;4.00;96356.00;;;;5116383;27;20413;-67
2023/04/16 00:53:09;;;;;;;4.70;1.30;;;3.00;99.90;4.30;96363.00;;;;5107919;27;20469;-67
2023/04/16 00:56:00;;;;;;;1.70;1.60;;;3.20;99.90;4.20;96370.00;;;;5117719;27;20424;-67
2023/04/16 00:58:49;;;;;;;1.30;1.20;;;3.30;99.90;3.60;96354.00;;;;5117878;27;20447;-69
2023/04/16 01:01:37;;;;;;;0.87;0.87;;;3.10;99.90;3.50;96347.00;;;;5112539;27;20460;-69
2023/04/16 01:04:26;;;;;;;1.23;1.13;;;3.00;99.90;4.00;96355.00;;;;5115009;27;20424;-67
2023/04/16 01:07:15;;;;;;;1.30;1.20;;;2.70;99.90;4.40;96366.00;;;;5107038;27;20472;-68
2023/04/16 01:10:04;;;;;;;1.50;1.40;;;2.80;99.90;4.10;96358.00;;;;5111300;27;20461;-65
2023/04/16 01:12:54;;;;;;;1.03;1.03;;;3.00;99.90;4.10;96366.00;;;;5120411;27;20449;-67
2023/04/16 01:15:43;;;;;;;1.03;0.93;;;3.30;99.90;4.40;96374.00;;;;5111920;27;20457;-66
2023/04/16 01:18:31;;;;;;;0.90;0.90;;;3.10;99.90;4.60;96370.00;;;;5101277;28;20424;-66
2023/04/16 01:21:22;;;;;;;1.27;1.17;;;3.30;99.90;4.60;96377.00;;;;5109038;28;21021;-67
2023/04/16 01:24:10;;;;;;;1.23;1.13;;;3.20;99.90;4.60;96384.00;;;;5104082;28;20487;-67
2023/04/16 01:26:59;;;;;;;1.07;1.07;;;3.10;99.90;4.70;96380.00;;;;5108859;27;20520;-67
2023/04/16 01:29:48;;;;;;;1.70;1.23;;;3.40;99.90;4.70;96378.00;;;;5102803;28;20422;-67
2023/04/16 01:32:36;;;;;;;2.07;1.30;;;3.60;99.90;4.30;96377.00;;;;5106760;27;20456;-67
2023/04/16 01:35:25;;;;;;;1.07;1.03;;;3.20;99.90;4.10;96370.00;;;;5107646;27;20468;-66
2023/04/16 01:38:16;;;;;;;0.93;0.93;;;3.40;99.90;3.80;96376.00;;;;5104919;28;20436;-67
2023/04/16 01:41:04;;;;;;;1.10;1.00;;;3.30;99.90;3.70;96374.00;;;;5103121;28;20488;-68
2023/04/16 01:43:53;;;;;;;2.97;1.17;;;2.90;99.90;4.00;96375.00;;;;5106203;28;20432;-66
2023/04/16 01:46:43;;;;;;;1.43;1.33;;;2.70;99.90;4.20;96374.00;;;;5108773;28;20425;-66
2023/04/16 01:49:32;;;;;;;1.10;1.00;;;3.10;99.90;4.00;96380.00;;;;5108983;28;20425;-66
2023/04/16 01:52:21;;;;;;;0.97;0.97;;;3.10;99.90;3.70;96369.00;;;;5105025;27;20449;-66
2023/04/16 01:55:11;;;;;;;1.00;1.00;;;3.00;99.90;3.60;96378.00;;;;5101423;28;21024;-66
2023/04/16 01:58:00;;;;;;;1.10;1.00;;;3.10;99.90;3.50;96382.00;;;;5106065;28;20557;-66
2023/04/16 02:00:48;;;;;;;1.10;1.10;;;3.00;99.90;3.40;96374.00;;;;5105374;28;20428;-67
2023/04/16 02:03:37;;;;;;;1.63;1.50;;;2.60;99.90;3.60;96381.00;;;;5108630;28;20779;-66
2023/04/16 02:06:27;;;;;;;1.07;1.00;;;3.00;99.90;3.80;96380.00;;;;5108343;28;20425;-67
2023/04/16 02:09:15;;;;;;;0.90;0.90;;;2.70;99.90;3.20;96378.00;;;;5106591;28;20424;-68
2023/04/16 02:12:06;;;;;;;1.20;1.10;;;2.30;99.90;3.20;96387.00;;;;5101479;28;20499;-68
2023/04/16 02:14:55;;;;;;;1.07;1.07;;;2.80;99.90;3.40;96377.00;;;;5106012;28;20421;-66
2023/04/16 02:17:45;;;;;;;1.40;1.30;;;2.70;99.90;3.00;96384.00;;;;5106549;28;20845;-68
2023/04/16 02:20:35;;;;;;;1.20;1.10;;;2.60;99.90;3.20;96391.00;;;;5107873;28;20409;-64
2023/04/16 02:23:23;;;;;;;1.30;1.20;;;2.30;99.90;3.30;96398.00;;;;5111549;27;20463;-65
2023/04/16 02:26:12;;;;;;;1.60;1.43;;;2.80;99.90;3.10;96402.00;;;;5109305;27;20432;-68
2023/04/16 02:29:03;;;;;;;2.37;1.73;;;2.30;99.90;3.10;96401.00;;;;5129402;27;20459;-66
2023/04/16 02:31:52;;;;;;;1.30;1.20;;;2.70;99.90;3.20;96397.00;;;;5127550;27;20922;-68
2023/04/16 02:34:41;;;;;;;1.00;1.00;;;2.30;99.90;3.40;96408.00;;;;5109363;27;20426;-68
2023/04/16 02:37:30;;;;;;;2.63;1.67;;;2.30;99.90;3.50;96417.00;;;;5095482;28;21173;-65
2023/04/16 02:40:20;;;;;;;1.67;1.57;;;2.70;99.90;3.60;96415.00;;;;5101369;28;20467;-66
2023/04/16 02:43:08;;;;;;;2.10;1.67;;;2.80;99.90;3.70;96406.00;;;;5107396;27;20541;-66
2023/04/16 02:45:59;;;;;;;1.27;1.17;;;2.60;99.90;3.30;96415.00;;;;5102625;27;20808;-66
2023/04/16 02:48:47;;;;;;;1.27;1.10;;;2.80;99.90;3.30;96410.00;;;;5106031;27;20482;-66
2023/04/16 02:51:36;;;;;;;1.20;1.10;;;2.30;99.90;3.00;96408.00;;;;5103920;27;20459;-67
2023/04/16 02:54:25;;;;;;;1.50;1.33;;;2.70;99.90;2.90;96415.00;;;;5102763;28;20470;-68
2023/04/16 02:57:13;;;;;;;1.90;1.77;;;2.70;99.90;3.30;96411.00;;;;5106233;28;20436;-66
2023/04/16 03:00:03;;;;;;;3.90;1.50;;;2.50;99.90;3.20;96407.00;;;;5102301;28;20440;-67
2023/04/16 03:02:54;;;;;;;2.00;1.90;;;2.80;99.90;3.40;96406.00;;;;5101795;28;20467;-67
2023/04/16 03:05:43;;;;;;;0.97;0.70;;;2.70;99.90;3.10;96402.00;;;;5098209;28;20421;-68
2023/04/16 03:08:32;;;;;;;1.80;1.63;;;2.70;99.90;3.20;96404.00;;;;5099162;28;20464;-68
2023/04/16 03:11:20;;;;;;;2.07;1.87;;;2.10;99.90;3.00;96422.00;;;;5100010;28;20456;-68
2023/04/16 03:14:09;;;;;;;2.73;1.10;;;2.30;99.90;3.00;96418.00;;;;5096795;28;20440;-66
2023/04/16 03:16:58;;;;;;;2.13;1.70;;;2.50;99.90;3.40;96429.00;;;;5097795;28;20420;-66
2023/04/16 03:19:49;;;;;;;7.23;1.67;;;2.40;99.90;3.40;96421.00;;;;5099616;28;20426;-67
2023/04/16 03:22:38;;;;;;;2.73;1.43;;;2.60;99.90;3.30;96416.00;;;;5099637;28;20472;-67
2023/04/16 03:25:27;;;;;;;1.50;1.20;;;2.60;99.90;3.10;96433.00;;;;5101048;28;20543;-66
2023/04/16 03:28:15;;;;;;;1.67;1.53;;;2.30;99.90;3.50;96428.00;;;;5099361;28;20480;-67
2023/04/16 03:31:04;;;;;;;1.80;1.67;;;2.70;99.90;3.70;96440.00;;;;5101704;28;20457;-67
2023/04/16 03:33:53;;;;;;;1.50;1.30;;;2.60;99.90;3.70;96426.00;;;;5103892;28;20416;-67
2023/04/16 03:36:43;;;;;;;1.77;1.50;;;2.70;99.90;3.60;96436.00;;;;5106439;27;20433;-67
2023/04/16 03:39:32;;;;;;;2.00;1.80;;;2.20;99.90;3.40;96426.00;;;;5103039;27;20428;-66
2023/04/16 03:42:21;;;;;;;1.43;1.33;;;2.20;99.90;3.70;96441.00;;;;5102541;28;20465;-67
2023/04/16 03:45:10;;;;;;;1.70;1.60;;;2.30;99.90;3.90;96438.00;;;;5102021;28;20782;-67
2023/04/16 03:47:59;;;;;;;1.60;1.50;;;2.50;99.90;3.80;96440.00;;;;5098453;28;20948;-66
2023/04/16 03:50:48;;;;;;;1.40;1.30;;;3.00;99.90;3.80;96450.00;;;;5101547;28;20425;-66
2023/04/16 03:53:38;;;;;;;1.90;1.50;;;2.80;99.90;3.90;96448.00;;;;5094463;28;20444;-66
2023/04/16 03:56:27;;;;;;;2.03;1.60;;;2.50;99.90;3.90;96453.00;;;;5101868;28;20479;-67
2023/04/16 03:59:15;;;;;;;4.20;1.80;;;3.20;99.90;3.80;96447.00;;;;5097696;28;20526;-66
2023/04/16 04:02:04;;;;;;;1.30;1.23;;;3.10;99.90;3.30;96455.00;;;;5101080;28;20457;-66
2023/04/16 04:04:53;;;;;;;1.20;0.97;;;2.70;99.90;3.10;96462.00;;;;5094952;28;20439;-67
2023/04/16 04:07:42;;;;;;;2.07;1.90;;;2.50;99.90;3.00;96453.00;;;;5103619;28;20491;-64
2023/04/16 04:10:33;;;;;;;1.50;1.40;;;2.70;99.90;3.20;96450.00;;;;5107701;28;20425;-66
2023/04/16 04:13:22;;;;;;;0.90;0.90;;;2.70;99.90;3.00;96459.00;;;;5107242;28;20425;-63
2023/04/16 04:16:11;;;;;;;1.40;1.30;;;2.60;99.90;2.60;96453.00;;;;5103534;28;20945;-67
2023/04/16 04:19:00;;;;;;;1.63;1.10;;;2.20;99.90;2.60;96461.00;;;;5102198;28;20417;-68
2023/04/16 04:21:48;;;;;;;2.53;1.67;;;2.30;99.90;3.10;96466.00;;;;5104632;28;20966;-69
2023/04/16 04:24:37;;;;;;;1.73;1.63;;;2.40;99.90;3.20;96465.00;;;;5105200;28;20843;-69
2023/04/16 04:27:27;;;;;;;1.67;1.57;;;2.50;99.90;3.30;96475.00;;;;5106081;28;20429;-69
2023/04/16 04:30:16;;;;;;;2.17;1.57;;;2.50;99.90;3.40;96467.00;;;;5105787;28;20459;-69
2023/04/16 04:33:05;;;;;;;1.67;1.57;;;2.50;99.90;3.40;96485.00;;;;5099809;28;20457;-69
2023/04/16 04:35:54;;;;;;;1.23;1.23;;;2.50;99.90;3.30;96474.00;;;;5107298;28;20447;-65
2023/04/16 04:38:43;;;;;;;1.33;1.23;;;2.60;99.90;3.20;96472.00;;;;5110084;28;20432;-67
2023/04/16 04:41:31;;;;;;;1.00;1.00;;;2.50;99.90;3.50;96476.00;;;;5127104;27;20468;-66
2023/04/16 04:44:21;;;;;;;2.07;1.40;;;2.30;99.90;3.60;96471.00;;;;5095647;28;20510;-66
2023/04/16 04:47:10;;;;;;;2.17;1.60;;;2.60;99.90;3.40;96475.00;;;;5104714;28;20434;-66
2023/04/16 04:49:59;;;;;;;2.30;1.83;;;2.80;99.90;3.30;96478.00;;;;5100356;28;20429;-66
2023/04/16 04:52:48;;;;;;;1.73;1.60;;;2.90;99.90;3.50;96475.00;;;;5108801;27;20460;-66
2023/04/16 04:55:37;;;;;;;1.70;1.60;;;2.60;99.90;3.60;96476.00;;;;5107847;28;20428;-66
2023/04/16 04:58:25;;;;;;;1.30;1.20;;;2.80;99.90;3.40;96486.00;;;;5111258;27;20442;-66
2023/04/16 05:01:15;;;;;;;1.50;1.40;;;2.70;99.90;3.40;96489.00;;;;5109968;27;20542;-66
2023/04/16 05:04:05;;;;;;;1.40;1.30;;;2.80;99.90;3.50;96493.00;;;;5101845;27;20451;-66
2023/04/16 05:06:54;;;;;;;1.47;1.10;;;2.40;99.90;3.20;96502.00;;;;5105557;27;20426;-66
2023/04/16 05:09:44;;;;;;;6.33;1.43;;;2.80;99.90;3.20;96491.00;;;;5111337;27;20432;-67
2023/04/16 05:12:33;;;;;;;1.40;1.30;;;2.60;99.90;3.30;96498.00;;;;5106822;28;20447;-63
2023/04/16 05:15:22;;;;;;;1.33;1.20;;;2.90;99.90;3.50;96488.00;;;;5105864;27;20436;-65
2023/04/16 05:18:12;;;;;;;1.37;1.27;;;2.70;99.90;3.40;96497.00;;;;5102699;28;20533;-65
2023/04/16 05:21:00;;;;;;;1.40;1.30;;;2.70;99.90;3.70;96511.00;;;;5100166;28;20498;-65
2023/04/16 05:23:49;;;;;;;1.70;1.60;;;2.80;99.90;3.50;96499.00;;;;5105459;28;20461;-66
2023/04/16 05:26:38;;;;;;;1.63;1.53;;;2.90;99.90;3.40;96507.00;;;;5105913;27;20952;-65
2023/04/16 05:29:27;;;;;;;1.80;1.50;;;2.70;99.90;3.50;96509.00;;;;5096161;28;20486;-67
2023/04/16 05:32:15;;;;;;;2.07;1.50;;;2.90;99.90;3.60;96520.00;;;;5110500;27;20451;-67
2023/04/16 05:35:06;;;;;;;1.83;1.73;;;2.70;99.90;3.90;96521.00;;;;5108245;27;20991;-66
2023/04/16 05:37:55;;;;;;;1.43;1.33;;;2.70;99.90;4.10;96523.00;;;;5126873;27;20444;-66
2023/04/16 05:40:44;;;;;;;1.40;1.30;;;2.80;99.90;3.90;96532.00;;;;5126306;27;20964;-67
2023/04/16 05:43:33;;;;;;;1.73;1.63;;;2.80;99.90;3.70;96523.00;;;;5125825;27;20516;-68
2023/04/16 05:46:22;;;;;;;1.93;1.73;;;3.00;99.90;3.80;96527.00;;;;5127830;27;20446;-67
2023/04/16 05:49:11;;;;;;;1.57;1.47;;;2.80;99.90;4.10;96531.00;;;;5129208;27;20443;-67
2023/04/16 05:52:01;;;;;;;2.07;1.40;;;3.10;99.90;4.30;96538.00;;;;5126539;27;20452;-67
2023/04/16 05:54:50;;;;;;;1.63;1.53;;;3.20;99.90;4.40;96532.00;;;;5129609;27;21456;-67
2023/04/16 05:57:38;;;;;;;1.43;1.33;;;3.10;99.90;4.50;96537.00;;;;5124359;27;20845;-67
2023/04/16 06:00:27;;;;;;;2.10;1.00;;;3.40;99.90;4.30;96534.00;;;;5125750;27;20971;-70
2023/04/16 06:03:16;;;;;;;2.00;1.80;;;3.30;99.90;4.30;96529.00;;;;5126503;27;20491;-67
2023/04/16 06:06:05;;;;;;;2.53;2.33;;;3.50;99.90;4.40;96530.00;;;;5121057;27;20791;-67
2023/04/16 06:08:55;;;;;;;3.00;2.27;;;;;4.50;96537.00;;;;5134011;27;20606;-67
2023/04/16 06:11:45;;;;;;;1.90;1.77;;;;;4.50;96549.00;;;;5129387;27;20452;-68
2023/04/16 06:14:34;;;;;;;3.47;3.00;;;;;4.70;96549.00;;;;5123877;27;20426;-67
2023/04/16 06:17:23;;;;;;;6.13;4.90;;;;;5.00;96550.00;;;;5127859;27;20432;-66
2023/04/16 06:20:13;;;;;;;7.73;5.57;;;;;4.80;96543.00;;;;5126467;27;20880;-67
2023/04/16 06:23:02;;;;;;;5.17;4.57;;;;;5.10;96552.00;;;;5123578;27;20472;-67
2023/04/16 06:25:53;;;;;;;3.57;2.93;;;;;5.30;96556.00;;;;5126526;27;20224;-67
2023/04/16 06:28:42;;;;;;;3.77;3.20;;;;;5.50;96551.00;;;;5125652;27;20243;-67
2023/04/16 06:31:31;;;;;;;2.00;1.80;;;;;5.30;96560.00;;;;5129703;27;20273;-67
2023/04/16 06:34:20;;;;;;;3.60;3.30;;;;;5.30;96554.00;;;;5124022;27;20198;-68
2023/04/16 06:37:09;;;;;;;2.57;2.37;;;;;5.40;96554.00;;;;5124052;27;20213;-67
2023/04/16 06:39:58;;;;;;;2.73;2.53;;;;;5.90;96551.00;;;;5128590;27;20201;-68
2023/04/16 06:42:48;;;;;;;3.10;2.80;;;;;5.80;96561.00;;;;5125327;27;20244;-68
2023/04/16 06:45:37;;;;;;;4.37;3.97;;;;;6.10;96570.00;;;;5121419;27;20228;-67
2023/04/16 06:48:26;;;;;;;4.07;3.73;;;;;6.30;96565.00;;;;5130107;27;20206;-67
2023/04/16 06:51:15;;;;;;;2.73;2.53;;;;;5.90;96560.00;;;;5126632;27;20225;-69
2023/04/16 06:54:05;;;;;;;5.03;3.63;;;;;6.10;96561.00;;;;5122414;27;20800;-67
2023/04/16 06:56:53;;;;;;;3.30;2.90;;;;;6.20;96560.00;;;;5120985;27;20259;-67
2023/04/16 06:59:44;;;;;;;5.40;4.70;;;;;6.30;96559.00;;;;5126263;27;20247;-68
2023/04/16 07:02:33;;;;;;;6.10;5.03;;;;;6.80;96572.00;;;;5127453;27;20236;-68
2023/04/16 07:05:22;;;;;;;7.37;6.10;;;;;7.00;96571.00;;;;5122151;27;20678;-68
2023/04/16 07:08:11;;;;;;;5.33;4.83;;;;;6.90;96570.00;;;;5122486;27;20206;-68
2023/04/16 07:11:00;;;;;;;6.07;5.07;;;;;7.20;96576.00;;;;5128721;27;20708;-68
2023/04/16 07:13:49;;;;;;;7.40;4.97;;;;;7.50;96573.00;;;;5123152;27;20205;-68
2023/04/16 07:16:40;;;;;;;5.93;4.70;;;;;7.80;96580.00;;;;5125234;27;20680;-68
2023/04/16 07:19:31;;;;;;;7.27;5.60;;;;;8.00;96584.00;;;;5123667;27;20206;-68
2023/04/16 07:22:20;;;;;;;5.93;5.43;;;;;8.20;96585.00;;;;5127438;27;20225;-68
2023/04/16 07:25:10;;;;;;;5.50;5.00;;;;;8.40;96583.00;;;;5128939;27;20222;-68
2023/04/16 07:27:59;;;;;;;5.33;4.77;;;;;8.60;96595.00;;;;5127457;27;20216;-68
2023/04/16 07:30:48;;;;;;;5.33;4.17;;;;;8.60;96583.00;;;;5126338;27;20202;-68
2023/04/16 07:33:38;;;;;;;5.87;4.73;;;;;8.90;96586.00;;;;5124050;27;20194;-68
2023/04/16 07:36:27;;;;;;;4.53;4.13;;;;;9.10;96581.00;;;;5123039;27;20688;-68
2023/04/16 07:39:16;;;;;;;7.80;3.93;;;;;9.40;96587.00;;;;5124968;27;20229;-68
2023/04/16 07:42:05;;;;;;;5.40;4.83;;;;;9.70;96599.00;;;;5104273;28;20222;-67
2023/04/16 07:44:55;;;;;;;4.70;4.03;;;;;9.90;96607.00;;;;5102223;28;20218;-68
2023/04/16 07:47:45;;;;;;;4.97;4.57;;;;;10.00;96600.00;;;;5107870;28;20213;-68
2023/04/16 07:50:36;;;;;;;6.80;6.03;;;;;10.20;96609.00;;;;5102380;28;20674;-68
2023/04/16 07:53:25;;;;;;;5.13;4.63;;;;;10.00;96612.00;;;;5096980;28;20206;-68
2023/04/16 07:56:14;;;;;;;4.47;3.73;;;;;10.10;96611.00;;;;5104313;28;20202;-68
2023/04/16 07:59:02;;;;;;;5.47;3.60;;;;;10.10;96612.00;;;;5102338;28;20206;-68
2023/04/16 08:01:56;;;;;;;4.57;3.93;;;;;9.60;96607.00;;;;5102201;28;20215;-68
2023/04/16 08:04:45;;;;;;;6.70;4.03;;;;;9.40;96604.00;;;;5106217;28;20225;-68
2023/04/16 08:07:35;;;;;;;5.47;3.57;;;;;10.40;96620.00;;;;5097003;28;20265;-68
2023/04/16 08:10:24;;;;;;;4.10;3.70;;;;;10.90;96622.00;;;;5101147;28;20211;-68
2023/04/16 08:13:13;;;;;;;3.27;2.97;;;;;11.10;96623.00;;;;5105610;28;20206;-68
2023/04/16 08:16:02;;;;;;;3.87;3.50;;;;;11.50;96625.00;;;;5099713;28;20206;-68
2023/04/16 08:18:51;;;;;;;4.33;3.90;;;;;11.80;96619.00;;;;5110660;27;20214;-68
2023/04/16 08:21:40;;;;;;;5.77;4.10;;;;;12.00;96631.00;;;;5111652;28;20253;-68
2023/04/16 08:24:31;;;;;;;3.30;3.00;;;;;12.30;96626.00;;;;5116034;27;20261;-68
2023/04/16 08:27:20;;;;;;;4.10;3.70;;;;;12.50;96639.00;;;;5105632;28;20203;-68
2023/04/16 08:30:09;;;;;;;7.83;5.00;;;;;12.30;96644.00;;;;5107012;28;20206;-68
2023/04/16 08:32:58;;;;;;;6.00;4.73;;;;;12.30;96643.00;;;;5110505;28;20214;-68
2023/04/16 08:35:47;;;;;;;7.93;5.27;;;;;12.20;96643.00;;;;5103611;27;20213;-68
2023/04/16 08:38:36;;;;;;;4.30;3.50;;;;;12.10;96651.00;;;;5105723;28;20689;-68
2023/04/16 08:41:27;;;;;;;3.77;3.37;;;;;12.10;96641.00;;;;5110813;27;20287;-68
2023/04/16 08:44:21;;;;;;;5.40;3.37;;;;;12.00;96639.00;;;;5102975;28;20226;-68
2023/04/16 08:47:10;;;;;;;3.17;2.57;;;;;12.40;96643.00;;;;5108599;28;20202;-68
2023/04/16 08:49:59;;;;;;;2.60;2.40;;;;;12.60;96650.00;;;;5105833;28;20233;-68
2023/04/16 08:52:51;;;;;;;3.87;1.83;;;;;12.60;96650.00;;;;5111981;27;20626;-68
2023/04/16 08:55:43;;;;;;;3.40;2.27;;;;;12.70;96651.00;;;;5110548;27;20255;-68
2023/04/16 08:58:35;;;;;;;2.27;2.07;;;;;12.70;96658.00;;;;5106330;28;20218;-68
2023/04/16 09:01:25;;;;;;;2.30;2.00;;;;;13.00;96658.00;;;;5103485;28;20260;-68
2023/04/16 09:04:15;;;;;;;1.63;1.53;;;;;11.60;96648.00;;;;5097679;28;20218;-70
2023/04/16 09:07:05;;;;;;;1.77;1.47;;;;;12.30;96655.00;;;;5111518;27;20206;-68
2023/04/16 09:09:54;;;;;;;3.63;2.50;;;;;13.00;96664.00;;;;5112876;27;20256;-69
2023/04/16 09:12:44;;;;;;;8.57;4.40;;;;;13.20;96675.00;;;;5101311;28;20218;-68
2023/04/16 09:15:34;;;;;;;7.93;4.83;;;;;13.30;96674.00;;;;5105672;28;20245;-67
2023/04/16 09:18:24;;;;;;;3.93;2.27;;;;;13.10;96672.00;;;;5102415;28;20198;-68
2023/04/16 09:21:13;;;;;;;5.63;3.90;;;;;13.00;96662.00;;;;5107692;28;20307;-68
2023/04/16 09:24:03;;;;;;;7.17;4.57;;;;;13.60;96656.00;;;;5105851;28;20203;-68
2023/04/16 09:26:53;;;;;;;5.00;3.40;;;;;14.30;96668.00;;;;5106981;28;20542;-68
2023/04/16 09:29:42;;;;;;;13.57;9.57;;;;;14.20;96672.00;;;;5100965;28;20662;-68
2023/04/16 09:32:32;;;;;;;4.40;3.80;;;;;14.50;96670.00;;;;5098003;28;20249;-68
2023/04/16 09:35:21;;;;;;;6.93;2.77;;;;;14.30;96674.00;;;;5106311;27;20227;-68
2023/04/16 09:38:10;;;;;;;3.13;1.30;;;;;14.10;96672.00;;;;5106682;27;20210;-68
2023/04/16 09:41:09;;;;;;;1.37;1.27;;;;;14.40;96671.00;;;;5110709;27;20202;-68
2023/04/16 09:43:59;;;;;;;1.63;1.53;;;;;15.00;96677.00;;;;5109258;27;20731;-68
2023/04/16 09:46:48;;;;;;;2.97;1.13;;;;;15.20;96679.00;;;;5107255;28;20203;-68
2023/04/16 09:49:42;;;;;;;2.63;1.50;;;;;13.90;96681.00;;;;5102547;27;20199;-68
2023/04/16 09:52:30;;;;;;;1.70;1.20;;;12.70;99.90;13.10;96667.00;;;;5107940;28;20219;-67
2023/04/16 09:55:23;;;;;;;1.60;1.23;;;12.50;99.90;13.20;96677.00;;;;5111225;27;20250;-68
2023/04/16 09:58:12;;;;;;;1.63;0.97;;;12.20;99.90;13.40;96659.00;;;;5126189;27;20676;-68
2023/04/16 10:01:02;;;;;;;1.10;1.03;;;12.00;99.90;14.00;96665.00;;;;5129561;27;20221;-68
2023/04/16 10:03:53;;;;;;;1.67;1.57;;;12.00;99.90;14.60;96661.00;;;;5128718;27;20195;-67
2023/04/16 10:06:47;;;;;;;0.90;0.90;;;12.20;99.90;13.80;96663.00;;;;5122290;27;20214;-67
2023/04/16 10:09:39;;;;;;;1.10;1.00;;;12.30;99.90;12.90;96651.00;;;;5125128;27;20251;-68
2023/04/16 10:12:29;;;;;;;2.20;1.33;;;12.00;99.90;12.80;96650.00;;;;5127382;27;20249;-68
2023/04/16 10:15:18;;;;;;;1.40;1.30;;;11.90;99.90;13.10;96650.00;;;;5105850;28;20202;-66
2023/04/16 10:18:07;;;;;;;1.67;1.57;;;11.80;99.90;12.80;96642.00;;;;5102916;28;20292;-67
2023/04/16 10:20:57;;;;;;;1.47;1.37;;;11.70;99.90;13.10;96649.00;;;;5126735;27;20209;-67
2023/04/16 10:23:48;;;;;;;2.20;1.43;;;11.70;99.90;13.30;96644.00;;;;5125660;27;20198;-66
2023/04/16 10:26:37;;;;;;;1.37;1.10;;;11.70;99.90;13.80;96652.00;;;;5125635;27;20226;-67
2023/04/16 10:29:28;;;;;;;1.17;0.93;;;11.80;99.90;14.80;96650.00;;;;5130542;27;20301;-68
2023/04/16 10:32:19;;;;;;;2.17;1.00;;;12.00;99.90;15.10;96646.00;;;;5125555;27;20427;-68
2023/04/16 10:35:09;;;;;;;1.63;0.93;;;12.40;99.90;15.50;96649.00;;;;5125812;27;20210;-67
2023/04/16 10:37:57;;;;;;;1.53;1.13;;;12.70;99.90;15.70;96642.00;;;;5123214;27;20198;-67
2023/04/16 10:40:48;;;;;;;0.63;0.63;;;13.00;99.90;14.60;96636.00;;;;5125264;27;20217;-68
2023/04/16 10:43:41;;;;;;;1.03;0.87;;;13.10;99.90;15.50;96642.00;;;;5124591;27;20186;-68
2023/04/16 10:46:34;;;;;;;0.60;0.60;;;13.20;99.90;15.30;96627.00;;;;5124839;27;20713;-66
2023/04/16 10:49:25;;;;;;;1.13;0.77;;;13.40;99.90;15.20;96623.00;;;;5121123;27;20194;-68
2023/04/16 10:52:16;;;;;;;0.80;0.80;;;13.50;99.90;15.20;96633.00;;;;5129706;27;20218;-70
2023/04/16 10:55:06;;;;;;;0.87;0.87;;;13.50;99.90;16.30;96630.00;;;;5120760;27;20197;-68
2023/04/16 10:57:56;;;;;;;1.50;1.30;;;13.80;99.90;17.30;96594.00;;;;5127888;27;20676;-72
2023/04/16 11:00:50;;;;;;;7.47;4.03;;;14.30;99.90;18.30;96605.00;;;;5123561;27;20243;-68
2023/04/16 11:03:42;;;;;;;5.87;2.70;;;14.90;99.90;18.20;96607.00;;;;5125743;27;20200;-67
2023/04/16 11:06:31;;;;;;;14.67;6.07;;;15.40;99.90;18.40;96598.00;;;;5120990;27;20217;-67
2023/04/16 11:09:46;;;;;;;8.33;4.70;;;15.70;97.80;18.20;96596.00;;;;5126124;27;20194;-67
2023/04/16 11:12:37;;;;;;;1.17;0.77;;;16.00;96.30;17.90;96595.00;;;;5124561;27;20880;-67
2023/04/16 11:15:29;;;;;;;0.60;0.60;;;16.10;93.90;19.20;96596.00;;;;5124391;27;20574;-66
2023/04/16 11:18:20;;;;;;;3.07;2.53;;;16.40;92.60;19.40;96610.00;;;;5124454;27;20190;-68
2023/04/16 11:21:10;;;;;;;1.73;1.60;;;;;19.60;96594.00;;;;5126523;27;20225;-72
2023/04/16 11:23:58;;;;;;;0.90;0.50;;;17.20;99.90;18.80;96585.00;;;;5126216;27;20198;-68
2023/04/16 11:26:51;;;;;;;0.47;0.47;;;17.10;92.30;18.80;96642.00;;;;5126473;27;20230;-67
2023/04/16 11:29:40;;;;;;;0.40;0.40;;;17.30;92.20;19.50;96640.00;;;;5121897;27;20255;-68
2023/04/16 11:32:34;;;;;;;0.70;0.50;;;17.20;91.30;18.70;96634.00;;;;5126466;27;20226;-67
2023/04/16 11:35:23;;;;;;;0.43;0.40;;;17.20;90.50;18.30;96646.00;;;;5126471;27;20194;-68
2023/04/16 11:38:11;;;;;;;0.50;0.50;;;16.90;90.00;17.70;96631.00;;;;5124731;27;20200;-72
2023/04/16 11:41:00;;;;;;;0.40;0.40;;;16.50;89.50;17.50;96642.00;;;;5126138;27;20245;-69
2023/04/16 11:43:49;;;;;;;0.30;0.30;;;16.40;88.90;15.70;96647.00;;;;5125177;27;20206;-69
2023/04/16 11:46:40;;;;;;;0.20;0.20;;;15.60;86.90;16.40;96662.00;;;;5125068;27;20232;-66
2023/04/16 11:49:31;;;;;;;0.40;0.40;;;15.50;89.40;16.00;96632.00;;;;5126519;27;20346;-70
2023/04/16 11:52:27;;;;;;;0.40;0.40;;;15.00;89.50;16.10;96651.00;;;;5128780;27;20221;-68
2023/04/16 11:55:16;;;;;;;0.40;0.40;;;15.00;90.70;16.20;96611.00;;;;5129153;27;20640;-71
2023/04/16 11:58:14;;;;;;;0.30;0.30;;;14.80;91.50;16.90;96618.00;;;;5132306;27;20206;-68
2023/04/16 12:01:03;;;;;;;0.50;0.50;;;15.00;92.80;17.50;96645.00;;;;5132330;27;20228;-69
2023/04/16 12:04:02;;;;;;;1.27;0.50;;;14.90;92.90;18.70;96600.00;;;;5132606;27;20197;-69
2023/04/16 12:07:09;;;;;;;1.10;0.60;;;15.60;93.30;19.90;96618.00;;;;5128275;27;21175;-67
2023/04/16 12:10:16;;;;;;;22.03;10.23;;;16.10;92.70;17.70;96645.00;;;;5127176;27;20330;-70
2023/04/16 12:13:12;;;;;;;15.57;7.57;;;16.40;88.50;17.80;96654.00;;;;5126492;27;20218;-69
2023/04/16 12:16:01;;;;;;;8.60;4.90;;;16.20;90.60;16.80;96647.00;;;;5126649;27;20549;-67
2023/04/16 12:19:00;;;;;;;0.97;0.70;;;15.70;89.70;16.00;96648.00;;;;5122928;27;20737;-65
2023/04/16 12:21:50;;;;;;;0.90;0.60;;;15.40;88.10;15.80;96655.00;;;;5128175;27;20595;-68
2023/04/16 12:24:40;;;;;;;0.30;0.30;;;14.90;90.30;15.30;96648.00;;;;5127980;27;20270;-67
2023/04/16 12:27:44;;;;;;;0.40;0.40;;;14.50;92.30;13.90;96632.00;;;;5127954;27;20302;-66
2023/04/16 12:30:33;;;;;;;0.40;0.37;;;14.00;93.80;14.00;96636.00;;;;5126461;27;20221;-68
2023/04/16 12:33:21;;;;;;;0.50;0.33;;;13.60;91.30;15.60;96626.00;;;;5098217;28;20283;-66
2023/04/16 12:36:20;;;;;;;0.30;0.30;;;13.70;91.80;14.90;96626.00;;;;5106201;27;20264;-63
2023/04/16 12:39:10;;;;;;;0.43;0.43;;;13.50;91.30;15.10;96629.00;;;;5099059;28;20211;-66
2023/04/16 12:42:01;;;;;;;0.50;0.40;;;13.50;92.30;15.80;96623.00;;;;5110538;28;20230;-67
2023/04/16 12:44:50;;;;;;;0.40;0.33;;;14.00;91.50;16.40;96590.00;;;;5101765;28;20211;-68
2023/04/16 12:47:39;;;;;;;0.37;0.37;;;14.20;91.60;17.40;96588.00;;;;5103462;28;20308;-68
2023/04/16 12:50:28;;;;;;;0.40;0.40;;;14.60;90.50;17.40;96640.00;;;;5106661;27;20705;-66
2023/04/16 12:53:17;;;;;;;3.70;0.60;;;15.00;90.60;16.80;96639.00;;;;5105674;27;20206;-65
2023/04/16 12:56:06;;;;;;;0.40;0.40;;;15.10;90.40;15.90;96636.00;;;;5108071;28;20674;-75
2023/04/16 12:58:56;;;;;;;0.20;0.20;;;15.00;89.70;15.70;96636.00;;;;5100658;27;20222;-76
2023/04/16 13:01:44;;;;;;;0.40;0.30;;;14.80;90.20;14.70;96639.00;;;;5103663;28;20224;-67
2023/04/16 13:04:33;;;;;;;0.40;0.40;;;14.40;91.20;14.90;96649.00;;;;5106074;27;20570;-67
2023/04/16 13:07:23;;;;;;;0.40;0.40;;;14.10;92.40;13.80;96592.00;;;;5111128;27;20231;-62
2023/04/16 13:10:12;;;;;;;0.50;0.50;;;13.80;94.20;14.00;96616.00;;;;5110195;27;20206;-65